Time;durP1;ratioP1;P1;durP2;ratioP2;P2;SDS_P1;SDS_P2;PMS_P1;PMS_P2;Temp;Humidity;BMP_temperature;BMP_pressure;BME280_temperature;BME280_humidity;BME280_pressure;Samples;Min_cycle;Max_cycle;Signal;HPM_P1;HPM_P2
2022/07/28 00:00:23;;;;;;;6.05;2.80;;;22.20;52.30;;;;;;5120756;27;20056;-72
2022/07/28 00:02:49;;;;;;;5.55;2.80;;;22.30;52.40;;;;;;5123918;27;20017;-72
2022/07/28 00:05:14;;;;;;;9.45;3.63;;;22.30;52.30;;;;;;5121727;27;20055;-71
2022/07/28 00:07:40;;;;;;;5.93;3.05;;;22.30;52.30;;;;;;5119784;27;20039;-73
2022/07/28 00:10:06;;;;;;;6.60;3.03;;;22.30;52.20;;;;;;5121820;27;20023;-72
2022/07/28 00:12:32;;;;;;;8.70;3.17;;;22.40;52.20;;;;;;5123461;27;20464;-70
2022/07/28 00:14:58;;;;;;;3.35;2.28;;;22.40;52.10;;;;;;5122002;27;20152;-72
2022/07/28 00:17:24;;;;;;;7.35;3.10;;;22.40;52.20;;;;;;5122095;27;20034;-72
2022/07/28 00:19:50;;;;;;;6.55;2.90;;;22.40;52.20;;;;;;5123559;28;20016;-73
2022/07/28 00:22:16;;;;;;;6.43;3.42;;;22.40;52.30;;;;;;5118975;27;20039;-71
2022/07/28 00:24:42;;;;;;;6.60;3.55;;;22.40;52.40;;;;;;5122520;28;20024;-70
2022/07/28 00:27:08;;;;;;;8.93;3.55;;;22.40;52.60;;;;;;5121369;28;20015;-72
2022/07/28 00:29:34;;;;;;;4.07;2.70;;;22.30;52.60;;;;;;5121409;27;20066;-70
2022/07/28 00:32:00;;;;;;;3.70;2.60;;;22.30;52.40;;;;;;5120627;28;20024;-71
2022/07/28 00:34:26;;;;;;;4.95;3.10;;;22.30;52.40;;;;;;5119369;28;20030;-72
2022/07/28 00:36:51;;;;;;;6.97;3.38;;;22.30;52.50;;;;;;5119581;28;20376;-72
2022/07/28 00:39:17;;;;;;;6.13;2.78;;;22.30;52.60;;;;;;5122235;28;20019;-73
2022/07/28 00:41:43;;;;;;;5.15;2.40;;;22.30;52.70;;;;;;5115099;28;20047;-71
2022/07/28 00:44:09;;;;;;;4.03;3.15;;;22.30;52.70;;;;;;5119661;28;20028;-72
2022/07/28 00:46:35;;;;;;;4.03;3.20;;;22.30;52.90;;;;;;5123063;28;20547;-72
2022/07/28 00:49:02;;;;;;;4.72;3.00;;;22.30;52.90;;;;;;5122144;28;20047;-71
2022/07/28 00:51:28;;;;;;;5.82;3.00;;;22.30;52.90;;;;;;5121228;28;20399;-70
2022/07/28 00:53:56;;;;;;;5.47;2.85;;;22.20;53.20;;;;;;5118351;28;20024;-71
2022/07/28 00:56:22;;;;;;;5.85;2.85;;;22.20;53.20;;;;;;5120353;27;20094;-70
2022/07/28 00:58:48;;;;;;;7.22;3.25;;;22.20;53.40;;;;;;5126236;27;20118;-71
2022/07/28 01:01:16;;;;;;;5.90;2.75;;;22.10;53.30;;;;;;5122262;27;20516;-72
2022/07/28 01:03:45;;;;;;;6.13;3.13;;;22.10;53.30;;;;;;5123729;27;20023;-70
2022/07/28 01:06:29;;;;;;;5.43;3.17;;;22.10;53.50;;;;;;5126752;27;20027;-73
2022/07/28 01:08:55;;;;;;;;;;;22.00;53.40;;;;;;5122640;27;20523;-71
2022/07/28 01:11:51;;;;;;;5.18;2.78;;;22.10;52.80;;;;;;5125816;27;19943;-72
2022/07/28 01:14:23;;;;;;;6.53;2.78;;;22.00;53.50;;;;;;5100764;27;20046;-70
2022/07/28 01:17:00;;;;;;;5.05;3.05;;;22.00;53.80;;;;;;5124344;27;20084;-72
2022/07/28 01:19:59;;;;;;;4.82;2.63;;;21.90;53.80;;;;;;5124887;27;20019;-71
2022/07/28 01:22:31;;;;;;;4.20;2.72;;;21.90;53.80;;;;;;5124271;27;20532;-71
2022/07/28 01:25:11;;;;;;;7.47;3.30;;;21.80;53.80;;;;;;5116141;27;20020;-71
2022/07/28 01:28:10;;;;;;;6.18;3.20;;;21.80;54.10;;;;;;5122447;27;20069;-71
2022/07/28 01:30:42;;;;;;;4.68;2.90;;;21.80;54.10;;;;;;5121828;27;20499;-73
2022/07/28 01:33:17;;;;;;;7.85;2.92;;;21.70;54.10;;;;;;5121606;27;20107;-72
2022/07/28 01:35:50;;;;;;;7.47;3.00;;;21.70;54.40;;;;;;5124188;27;20444;-70
2022/07/28 01:38:18;;;;;;;9.00;2.75;;;21.60;54.40;;;;;;5116887;27;20035;-73
2022/07/28 01:40:45;;;;;;;4.53;2.90;;;21.60;54.50;;;;;;5124818;27;20465;-72
2022/07/28 01:43:17;;;;;;;5.70;3.05;;;21.50;54.60;;;;;;5126208;27;20034;-71
2022/07/28 01:45:44;;;;;;;6.82;3.00;;;21.40;54.80;;;;;;5125388;27;20095;-73
2022/07/28 01:48:11;;;;;;;4.20;2.63;;;21.40;55.00;;;;;;5123894;27;20023;-73
2022/07/28 01:50:38;;;;;;;5.78;3.00;;;21.30;55.70;;;;;;5125534;27;20042;-70
2022/07/28 01:53:07;;;;;;;4.70;3.03;;;21.20;55.20;;;;;;5124399;27;21708;-70
2022/07/28 01:55:34;;;;;;;4.63;3.10;;;21.20;55.50;;;;;;5120741;27;20023;-70
2022/07/28 01:58:01;;;;;;;7.75;3.05;;;21.10;55.60;;;;;;5124941;27;20484;-70
2022/07/28 02:00:28;;;;;;;8.55;3.25;;;21.00;55.50;;;;;;5124216;27;20077;-71
2022/07/28 02:02:55;;;;;;;3.53;2.42;;;21.00;55.70;;;;;;5123815;27;20015;-71
2022/07/28 02:05:23;;;;;;;5.57;3.13;;;21.00;55.90;;;;;;5120156;27;20553;-70
2022/07/28 02:07:50;;;;;;;5.25;2.53;;;20.90;55.90;;;;;;5123367;27;20380;-71
2022/07/28 02:10:17;;;;;;;7.47;3.25;;;20.90;55.80;;;;;;5123288;27;20059;-73
2022/07/28 02:12:45;;;;;;;5.38;3.05;;;20.90;56.00;;;;;;5125023;27;20027;-70
2022/07/28 02:15:12;;;;;;;6.35;3.25;;;20.80;56.70;;;;;;5125035;27;20051;-72
2022/07/28 02:17:43;;;;;;;4.50;2.35;;;20.80;56.10;;;;;;5123376;27;20018;-73
2022/07/28 02:20:11;;;;;;;6.97;3.40;;;20.80;56.20;;;;;;5122702;27;20023;-70
2022/07/28 02:22:39;;;;;;;7.78;3.30;;;20.80;56.30;;;;;;5124102;27;20072;-73
2022/07/28 02:25:06;;;;;;;4.05;3.17;;;20.70;56.20;;;;;;5123273;27;20031;-72
2022/07/28 02:27:44;;;;;;;6.25;3.50;;;20.70;56.10;;;;;;5122182;27;20464;-73
2022/07/28 02:30:14;;;;;;;6.63;3.17;;;20.70;56.20;;;;;;5123682;27;20069;-70
2022/07/28 02:33:02;;;;;;;6.93;3.03;;;20.70;55.90;;;;;;5120526;27;20476;-72
2022/07/28 02:35:32;;;;;;;10.05;3.00;;;20.70;55.70;;;;;;5121197;27;20544;-72
2022/07/28 02:38:05;;;;;;;4.90;2.80;;;20.70;55.50;;;;;;5123096;27;20067;-71
2022/07/28 02:40:36;;;;;;;6.68;3.00;;;20.80;55.40;;;;;;5124670;27;20044;-71
2022/07/28 02:43:05;;;;;;;5.55;3.13;;;20.80;55.30;;;;;;5121162;27;20342;-70
2022/07/28 02:45:34;;;;;;;6.63;3.28;;;20.80;55.10;;;;;;5123275;27;20023;-72
2022/07/28 02:48:04;;;;;;;4.68;2.47;;;20.80;55.00;;;;;;5120159;27;20027;-72
2022/07/28 02:50:30;;;;;;;10.00;3.03;;;20.80;54.80;;;;;;5123357;27;20421;-70
2022/07/28 02:53:00;;;;;;;7.47;2.70;;;20.90;54.70;;;;;;5121228;27;20023;-70
2022/07/28 02:55:27;;;;;;;5.63;2.60;;;20.90;54.70;;;;;;5121541;27;20122;-71
2022/07/28 02:57:54;;;;;;;5.63;2.40;;;20.90;54.60;;;;;;5121681;27;20016;-73
2022/07/28 03:00:21;;;;;;;5.43;2.33;;;20.90;54.50;;;;;;5120242;27;20046;-72
2022/07/28 03:02:47;;;;;;;6.18;2.65;;;20.90;54.50;;;;;;5123644;27;20015;-70
2022/07/28 03:05:16;;;;;;;3.58;2.10;;;20.90;54.60;;;;;;5123968;27;20024;-70
2022/07/28 03:07:43;;;;;;;4.20;2.40;;;20.90;54.50;;;;;;5120475;27;20487;-72
2022/07/28 03:10:26;;;;;;;2.80;2.28;;;20.90;54.40;;;;;;5123209;27;20107;-71
2022/07/28 03:12:55;;;;;;;3.72;2.28;;;20.90;54.30;;;;;;5121827;27;20027;-71
2022/07/28 03:15:21;;;;;;;3.92;2.45;;;20.90;54.20;;;;;;5121231;27;20015;-72
2022/07/28 03:17:47;;;;;;;5.80;2.22;;;20.90;54.20;;;;;;5123300;27;20015;-72
2022/07/28 03:20:13;;;;;;;5.38;2.45;;;20.90;54.10;;;;;;5123229;27;20073;-72
2022/07/28 03:22:39;;;;;;;3.38;2.33;;;20.90;54.10;;;;;;5122141;27;20147;-72
2022/07/28 03:25:12;;;;;;;3.45;2.13;;;20.90;54.10;;;;;;5123451;27;20023;-71
2022/07/28 03:27:43;;;;;;;3.23;2.00;;;20.90;54.00;;;;;;5116537;27;20026;-73
2022/07/28 03:30:16;;;;;;;5.55;2.30;;;20.90;54.00;;;;;;5122763;27;20019;-70
2022/07/28 03:32:47;;;;;;;3.63;2.35;;;20.90;53.80;;;;;;5119894;27;20388;-72
2022/07/28 03:35:14;;;;;;;5.70;2.45;;;20.90;53.80;;;;;;5121515;27;20472;-71
2022/07/28 03:37:53;;;;;;;3.90;2.38;;;20.90;53.80;;;;;;5119048;27;20054;-73
2022/07/28 03:40:20;;;;;;;4.38;2.40;;;20.90;53.70;;;;;;5119670;27;20023;-72
2022/07/28 03:42:48;;;;;;;4.15;2.47;;;20.80;53.60;;;;;;5122590;27;20034;-73
2022/07/28 03:45:15;;;;;;;4.60;2.10;;;20.80;53.60;;;;;;5121852;27;20023;-70
2022/07/28 03:47:55;;;;;;;4.20;2.15;;;20.80;53.70;;;;;;5117872;27;20419;-70
2022/07/28 03:50:23;;;;;;;7.28;2.50;;;20.80;53.80;;;;;;5119130;27;20023;-71
2022/07/28 03:52:49;;;;;;;6.80;2.47;;;20.80;53.70;;;;;;5118484;27;20090;-72
2022/07/28 03:55:15;;;;;;;5.82;2.40;;;20.80;53.80;;;;;;5123542;27;20031;-70
2022/07/28 03:57:41;;;;;;;4.22;2.40;;;20.80;53.60;;;;;;5119600;27;20024;-71
2022/07/28 04:00:08;;;;;;;6.55;2.65;;;20.80;53.80;;;;;;5122419;27;20102;-70
2022/07/28 04:02:33;;;;;;;8.25;2.30;;;20.80;53.80;;;;;;5121597;27;20038;-72
2022/07/28 04:05:00;;;;;;;6.05;2.53;;;20.80;53.80;;;;;;5120211;27;20515;-70
2022/07/28 04:07:25;;;;;;;6.60;2.45;;;20.80;53.80;;;;;;5122732;27;20088;-73
2022/07/28 04:09:51;;;;;;;9.55;2.40;;;20.80;53.80;;;;;;5121606;27;20019;-71
2022/07/28 04:12:17;;;;;;;7.47;2.60;;;20.80;53.80;;;;;;5119451;27;20587;-71
2022/07/28 04:14:43;;;;;;;3.80;2.17;;;20.80;53.50;;;;;;5121605;27;20046;-71
2022/07/28 04:17:08;;;;;;;5.38;2.10;;;20.90;53.40;;;;;;5121929;27;20023;-73
2022/07/28 04:19:34;;;;;;;5.20;2.38;;;20.90;53.30;;;;;;5121861;27;20314;-69
2022/07/28 04:22:00;;;;;;;6.85;2.60;;;20.90;53.20;;;;;;5118174;27;20048;-71
2022/07/28 04:24:26;;;;;;;3.38;2.10;;;21.00;52.70;;;;;;5122455;28;20024;-74
2022/07/28 04:26:51;;;;;;;6.68;2.30;;;21.10;53.00;;;;;;5122007;28;20053;-72
2022/07/28 04:29:17;;;;;;;4.88;2.10;;;21.10;52.50;;;;;;5120972;28;20492;-71
2022/07/28 04:31:43;;;;;;;5.70;3.33;;;21.10;52.70;;;;;;5125222;27;20115;-71
2022/07/28 04:34:09;;;;;;;5.80;2.50;;;21.20;52.60;;;;;;5116552;27;20104;-70
2022/07/28 04:36:40;;;;;;;4.28;2.50;;;21.20;52.50;;;;;;5125227;27;20516;-72
2022/07/28 04:39:07;;;;;;;7.72;2.85;;;21.30;52.50;;;;;;5124290;27;20035;-70
2022/07/28 04:41:34;;;;;;;5.38;2.60;;;21.40;52.40;;;;;;5125594;27;20094;-73
2022/07/28 04:44:00;;;;;;;6.70;2.22;;;21.40;52.30;;;;;;5121875;27;20075;-73
2022/07/28 04:46:26;;;;;;;4.45;2.42;;;21.50;52.10;;;;;;5124850;27;20019;-71
2022/07/28 04:48:51;;;;;;;7.13;2.92;;;21.50;52.00;;;;;;5126508;27;20052;-71
2022/07/28 04:51:17;;;;;;;5.03;2.40;;;21.50;51.50;;;;;;5126543;27;20023;-71
2022/07/28 04:53:43;;;;;;;9.32;2.58;;;21.60;51.40;;;;;;5127801;27;20019;-72
2022/07/28 04:56:09;;;;;;;6.15;2.95;;;21.60;51.50;;;;;;5125703;27;20083;-70
2022/07/28 04:58:35;;;;;;;4.97;2.55;;;21.60;51.20;;;;;;5127064;27;20015;-72
2022/07/28 05:01:01;;;;;;;3.08;1.92;;;21.70;51.60;;;;;;5124182;27;20022;-72
2022/07/28 05:03:27;;;;;;;6.68;2.72;;;21.80;51.50;;;;;;5125800;27;20019;-72
2022/07/28 05:05:53;;;;;;;5.78;2.38;;;21.80;51.30;;;;;;5125189;27;20023;-72
2022/07/28 05:08:18;;;;;;;5.75;2.28;;;21.80;51.00;;;;;;5127104;27;20471;-71
2022/07/28 05:10:44;;;;;;;3.15;2.20;;;21.80;50.80;;;;;;5123271;27;20027;-73
2022/07/28 05:13:10;;;;;;;5.18;2.17;;;21.90;50.90;;;;;;5119359;27;20049;-71
2022/07/28 05:15:36;;;;;;;10.13;3.95;;;22.00;51.00;;;;;;5125754;27;20031;-72
2022/07/28 05:18:01;;;;;;;4.97;2.30;;;22.00;50.90;;;;;;5119731;27;20015;-71
2022/07/28 05:20:27;;;;;;;7.65;2.25;;;22.10;51.20;;;;;;5124962;27;20493;-73
2022/07/28 05:22:53;;;;;;;3.97;1.90;;;22.20;51.40;;;;;;5121840;27;20023;-72
2022/07/28 05:25:22;;;;;;;3.95;2.08;;;22.30;51.40;;;;;;5124947;27;20030;-70
2022/07/28 05:27:49;;;;;;;3.83;2.15;;;22.40;51.20;;;;;;5122159;27;20077;-72
2022/07/28 05:30:16;;;;;;;4.18;2.22;;;22.50;51.10;;;;;;5117491;27;20466;-73
2022/07/28 05:32:44;;;;;;;4.70;2.47;;;22.50;50.90;;;;;;5114180;27;20031;-72
2022/07/28 05:35:09;;;;;;;4.53;2.30;;;22.60;50.50;;;;;;5100657;28;20018;-73
2022/07/28 05:37:36;;;;;;;4.60;2.80;;;22.70;50.10;;;;;;5098941;28;20413;-72
2022/07/28 05:40:07;;;;;;;3.75;2.15;;;22.80;49.90;;;;;;5098789;27;20484;-71
2022/07/28 05:42:35;;;;;;;6.28;2.83;;;22.80;49.50;;;;;;5095220;28;20122;-72
2022/07/28 05:45:07;;;;;;;10.43;2.90;;;22.90;49.00;;;;;;5095747;28;20023;-70
2022/07/28 05:47:45;;;;;;;5.55;2.35;;;22.90;49.30;;;;;;5095777;28;20020;-72
2022/07/28 05:50:12;;;;;;;6.95;2.38;;;23.00;49.40;;;;;;5107106;28;20446;-71
2022/07/28 05:52:37;;;;;;;5.78;2.50;;;23.00;49.60;;;;;;5116137;27;20035;-73
2022/07/28 05:55:05;;;;;;;6.88;2.20;;;23.10;49.50;;;;;;5131527;27;20020;-71
2022/07/28 05:57:31;;;;;;;3.28;2.20;;;23.10;49.10;;;;;;5118614;27;20115;-71
2022/07/28 05:59:57;;;;;;;3.63;2.03;;;23.20;48.80;;;;;;5125773;27;20080;-71
2022/07/28 06:02:22;;;;;;;6.13;2.10;;;23.20;48.60;;;;;;5124763;27;20059;-70
2022/07/28 06:04:48;;;;;;;4.18;2.00;;;23.30;48.60;;;;;;5124082;27;20021;-70
2022/07/28 06:07:14;;;;;;;51.38;34.50;;;23.30;48.10;;;;;;5122220;27;20027;-71
2022/07/28 06:09:40;;;;;;;36.33;25.67;;;23.40;48.10;;;;;;5122041;27;20451;-71
2022/07/28 06:12:06;;;;;;;26.23;15.77;;;23.40;48.40;;;;;;5123765;27;20024;-71
2022/07/28 06:14:32;;;;;;;10.45;6.45;;;23.40;48.80;;;;;;5122595;27;20027;-70
2022/07/28 06:16:57;;;;;;;12.30;7.25;;;23.50;48.10;;;;;;5125803;27;20122;-71
2022/07/28 06:19:23;;;;;;;9.05;4.75;;;23.60;48.50;;;;;;5108021;27;20466;-71
2022/07/28 06:21:51;;;;;;;9.32;5.22;;;23.70;48.50;;;;;;5115241;28;20115;-71
2022/07/28 06:24:17;;;;;;;8.55;3.78;;;23.70;48.40;;;;;;5114719;28;20111;-72
2022/07/28 06:26:43;;;;;;;9.70;3.50;;;23.80;47.80;;;;;;5095299;28;20028;-72
2022/07/28 06:29:09;;;;;;;6.38;2.58;;;23.90;47.80;;;;;;5094931;28;20115;-69
2022/07/28 06:31:35;;;;;;;8.70;3.03;;;24.00;47.60;;;;;;5094921;28;20028;-71
2022/07/28 06:34:01;;;;;;;9.98;3.17;;;24.00;47.40;;;;;;5095015;28;20117;-71
2022/07/28 06:36:27;;;;;;;5.47;2.75;;;24.00;46.90;;;;;;5094777;28;20063;-71
2022/07/28 06:38:53;;;;;;;7.75;3.03;;;24.10;46.80;;;;;;5094883;28;20389;-70
2022/07/28 06:41:19;;;;;;;6.40;2.65;;;24.10;47.40;;;;;;5109941;28;20027;-72
2022/07/28 06:43:45;;;;;;;5.25;2.20;;;24.10;46.80;;;;;;5111773;28;20023;-70
2022/07/28 06:46:13;;;;;;;7.93;2.40;;;24.10;46.70;;;;;;5113216;27;20031;-72
2022/07/28 06:48:42;;;;;;;5.93;2.35;;;24.10;47.00;;;;;;5101100;28;20481;-72
2022/07/28 06:51:07;;;;;;;2.97;2.00;;;24.20;47.10;;;;;;5094632;28;20060;-71
2022/07/28 06:53:36;;;;;;;7.38;3.25;;;24.20;47.20;;;;;;5094559;28;20115;-71
2022/07/28 06:56:05;;;;;;;6.07;2.80;;;24.30;47.10;;;;;;5094391;28;20028;-72
2022/07/28 06:58:31;;;;;;;3.25;2.30;;;24.30;46.90;;;;;;5093212;28;20024;-71
2022/07/28 07:00:57;;;;;;;3.90;2.15;;;24.40;47.00;;;;;;5094427;28;20030;-71
2022/07/28 07:03:22;;;;;;;4.13;2.15;;;24.40;47.00;;;;;;5094410;28;20051;-71
2022/07/28 07:05:48;;;;;;;5.43;2.47;;;24.50;47.10;;;;;;5093103;28;20078;-72
2022/07/28 07:08:14;;;;;;;2.47;1.83;;;24.50;46.80;;;;;;5094346;28;20024;-71
2022/07/28 07:10:40;;;;;;;4.75;2.30;;;24.60;46.80;;;;;;5094307;28;20028;-71
2022/07/28 07:13:05;;;;;;;6.63;2.40;;;24.70;47.00;;;;;;5093149;28;20028;-71
2022/07/28 07:15:31;;;;;;;4.53;2.22;;;24.80;46.70;;;;;;5094095;28;20032;-70
2022/07/28 07:17:57;;;;;;;4.03;2.28;;;24.80;46.20;;;;;;5094083;28;20081;-70
2022/07/28 07:20:23;;;;;;;4.30;2.45;;;24.90;46.50;;;;;;5093915;28;20517;-71
2022/07/28 07:22:49;;;;;;;7.30;3.00;;;24.90;46.30;;;;;;5094087;28;20032;-70
2022/07/28 07:25:16;;;;;;;5.20;2.40;;;24.90;45.80;;;;;;5093991;28;20024;-72
2022/07/28 07:27:43;;;;;;;11.73;2.13;;;24.90;46.00;;;;;;5093929;28;20064;-71
2022/07/28 07:30:10;;;;;;;4.07;2.47;;;24.90;46.20;;;;;;5093531;28;20551;-70
2022/07/28 07:32:36;;;;;;;3.80;2.33;;;24.90;46.10;;;;;;5093670;28;20477;-69
2022/07/28 07:35:03;;;;;;;5.53;2.30;;;24.90;45.80;;;;;;5093753;28;20024;-72
2022/07/28 07:37:31;;;;;;;3.85;2.00;;;24.90;46.30;;;;;;5093657;28;20481;-72
2022/07/28 07:39:58;;;;;;;3.47;2.00;;;25.00;46.50;;;;;;5093635;28;20066;-71
2022/07/28 07:42:24;;;;;;;3.50;2.25;;;25.00;46.70;;;;;;5093857;28;20402;-70
2022/07/28 07:44:50;;;;;;;4.20;1.92;;;25.00;46.80;;;;;;5106341;28;20448;-71
2022/07/28 07:47:17;;;;;;;8.10;2.45;;;25.00;46.80;;;;;;5100352;28;20103;-72
2022/07/28 07:49:42;;;;;;;2.83;2.00;;;25.10;46.80;;;;;;5092565;28;20385;-71
2022/07/28 07:52:08;;;;;;;7.30;1.95;;;25.10;46.80;;;;;;5093529;28;20036;-70
2022/07/28 07:54:34;;;;;;;4.13;2.20;;;25.20;46.80;;;;;;5107109;28;20031;-72
2022/07/28 07:57:00;;;;;;;3.35;2.03;;;25.30;46.60;;;;;;5113713;28;20059;-72
2022/07/28 07:59:26;;;;;;;4.85;2.13;;;25.30;46.50;;;;;;5113856;28;20016;-72
2022/07/28 08:01:55;;;;;;;3.03;2.22;;;25.40;46.20;;;;;;5113805;28;20076;-70
2022/07/28 08:04:21;;;;;;;4.63;2.08;;;25.40;46.00;;;;;;5113451;28;20388;-70
2022/07/28 08:06:48;;;;;;;5.03;2.53;;;25.40;46.10;;;;;;5113416;28;20032;-72
2022/07/28 08:09:14;;;;;;;4.38;2.13;;;25.50;46.30;;;;;;5112322;28;20050;-70
2022/07/28 08:11:40;;;;;;;4.95;2.08;;;25.50;46.10;;;;;;5113635;28;20024;-70
2022/07/28 08:14:06;;;;;;;6.22;2.55;;;25.50;45.60;;;;;;5113758;28;20464;-70
2022/07/28 08:16:32;;;;;;;3.47;2.10;;;25.60;45.80;;;;;;5113381;28;20024;-71
2022/07/28 08:18:58;;;;;;;9.32;2.33;;;25.60;46.10;;;;;;5113560;28;20472;-70
2022/07/28 08:21:25;;;;;;;5.43;2.13;;;25.70;45.60;;;;;;5113322;28;20080;-72
2022/07/28 08:23:54;;;;;;;8.40;2.00;;;25.70;45.50;;;;;;5111831;28;20016;-70
2022/07/28 08:26:21;;;;;;;3.65;2.17;;;25.80;45.60;;;;;;5113334;28;20030;-70
2022/07/28 08:28:47;;;;;;;6.72;2.30;;;25.90;45.20;;;;;;5113440;28;20020;-73
2022/07/28 08:31:15;;;;;;;3.45;2.10;;;26.00;45.30;;;;;;5113343;28;20026;-71
2022/07/28 08:33:44;;;;;;;3.35;2.17;;;26.00;45.00;;;;;;5113376;28;20113;-70
2022/07/28 08:36:10;;;;;;;3.28;2.00;;;26.00;44.90;;;;;;5113320;28;20388;-72
2022/07/28 08:38:36;;;;;;;5.43;2.03;;;26.10;45.10;;;;;;5112000;28;20020;-72
2022/07/28 08:41:03;;;;;;;2.88;1.90;;;26.10;44.80;;;;;;5113319;28;20032;-72
2022/07/28 08:43:33;;;;;;;5.53;2.40;;;26.20;44.80;;;;;;5113130;28;20099;-73
2022/07/28 08:46:05;;;;;;;3.15;1.98;;;26.30;44.50;;;;;;5098577;28;20032;-70
2022/07/28 08:48:33;;;;;;;3.67;1.80;;;26.30;43.80;;;;;;5092892;28;20020;-71
2022/07/28 08:51:06;;;;;;;5.15;1.75;;;26.30;44.20;;;;;;5091679;28;20073;-72
2022/07/28 08:53:34;;;;;;;4.90;2.20;;;26.40;44.10;;;;;;5093355;28;20024;-73
2022/07/28 08:56:06;;;;;;;4.25;2.08;;;26.40;44.30;;;;;;5092876;28;20056;-71
2022/07/28 08:58:33;;;;;;;4.38;2.45;;;26.50;44.20;;;;;;5093253;28;20346;-70
2022/07/28 09:01:00;;;;;;;4.55;1.90;;;26.50;43.50;;;;;;5092901;28;20467;-72
2022/07/28 09:03:27;;;;;;;6.47;2.42;;;26.60;43.80;;;;;;5092768;28;20087;-71
2022/07/28 09:05:54;;;;;;;4.90;2.30;;;26.60;43.30;;;;;;5091305;28;20043;-71
2022/07/28 09:08:20;;;;;;;3.33;1.67;;;26.70;44.10;;;;;;5091464;28;20027;-71
2022/07/28 09:10:47;;;;;;;6.18;1.98;;;26.80;44.10;;;;;;5092740;28;20054;-69
2022/07/28 09:13:14;;;;;;;4.45;2.10;;;26.80;44.00;;;;;;5091439;28;20482;-72
2022/07/28 09:15:40;;;;;;;2.58;1.80;;;26.90;43.40;;;;;;5092600;28;20021;-69
2022/07/28 09:18:06;;;;;;;5.90;2.15;;;27.00;43.70;;;;;;5094987;28;20024;-70
2022/07/28 09:20:35;;;;;;;3.80;2.10;;;27.00;42.80;;;;;;5096575;28;20036;-72
2022/07/28 09:23:03;;;;;;;6.07;2.25;;;27.00;43.20;;;;;;5096714;28;20069;-70
2022/07/28 09:25:30;;;;;;;6.90;1.83;;;27.00;43.50;;;;;;5096331;28;20021;-69
2022/07/28 09:28:04;;;;;;;4.75;1.90;;;27.10;43.10;;;;;;5096302;28;20016;-70
2022/07/28 09:30:31;;;;;;;4.00;1.95;;;27.10;43.50;;;;;;5096261;28;20032;-71
2022/07/28 09:33:18;;;;;;;10.00;2.20;;;27.20;43.40;;;;;;5096236;28;20046;-69
2022/07/28 09:35:50;;;;;;;5.70;2.10;;;27.30;43.60;;;;;;5096063;28;20027;-71
2022/07/28 09:38:16;;;;;;;3.92;2.13;;;27.40;43.80;;;;;;5096101;28;20020;-70
2022/07/28 09:40:44;;;;;;;4.57;1.98;;;27.40;43.70;;;;;;5096095;28;20020;-70
2022/07/28 09:43:10;;;;;;;3.88;1.90;;;27.50;43.60;;;;;;5094706;28;20031;-72
2022/07/28 09:45:38;;;;;;;7.95;1.85;;;27.60;43.50;;;;;;5096121;28;20457;-71
2022/07/28 09:48:09;;;;;;;2.50;1.83;;;27.60;43.50;;;;;;5095907;28;20022;-72
2022/07/28 09:50:36;;;;;;;3.08;2.10;;;27.70;43.20;;;;;;5095867;28;20013;-72
2022/07/28 09:53:23;;;;;;;6.00;2.58;;;27.70;43.40;;;;;;5096128;28;20024;-71
2022/07/28 09:55:55;;;;;;;3.30;2.15;;;27.80;43.40;;;;;;5106539;28;20031;-70
2022/07/28 09:58:20;;;;;;;4.40;2.35;;;27.80;42.80;;;;;;5116157;28;20023;-70
2022/07/28 10:00:46;;;;;;;6.80;2.00;;;27.80;42.50;;;;;;5116014;28;20084;-71
2022/07/28 10:03:24;;;;;;;4.25;1.90;;;27.90;43.00;;;;;;5115953;28;20471;-71
2022/07/28 10:05:50;;;;;;;6.03;2.20;;;27.90;42.60;;;;;;5116047;28;20045;-71
2022/07/28 10:08:16;;;;;;;5.32;2.08;;;27.90;42.50;;;;;;5115978;28;20015;-71
2022/07/28 10:10:56;;;;;;;3.63;2.15;;;27.90;42.80;;;;;;5115841;28;20027;-70
2022/07/28 10:13:22;;;;;;;12.25;2.28;;;27.90;42.90;;;;;;5115914;28;20015;-71
2022/07/28 10:16:10;;;;;;;5.55;1.58;;;28.00;42.60;;;;;;5115680;28;20035;-71
2022/07/28 10:18:39;;;;;;;7.93;1.92;;;28.10;42.90;;;;;;5115740;28;20026;-71
2022/07/28 10:21:12;;;;;;;4.38;1.98;;;28.20;42.40;;;;;;5115447;28;20039;-73
2022/07/28 10:23:39;;;;;;;3.80;1.95;;;28.20;42.80;;;;;;5107192;28;20103;-72
2022/07/28 10:26:09;;;;;;;3.90;2.13;;;28.30;41.90;;;;;;5093939;28;20028;-70
2022/07/28 10:28:37;;;;;;;4.15;2.08;;;28.40;40.90;;;;;;5094883;28;20102;-70
2022/07/28 10:31:08;;;;;;;5.93;2.83;;;28.40;41.70;;;;;;5095074;28;20043;-71
2022/07/28 10:33:36;;;;;;;4.15;2.00;;;28.40;41.80;;;;;;5093746;28;20515;-71
2022/07/28 10:36:02;;;;;;;7.07;2.10;;;28.50;40.80;;;;;;5093571;28;20055;-72
2022/07/28 10:38:34;;;;;;;3.58;1.83;;;28.60;40.70;;;;;;5093698;28;20042;-71
2022/07/28 10:41:07;;;;;;;2.95;2.10;;;28.60;40.90;;;;;;5095038;28;20087;-72
2022/07/28 10:43:34;;;;;;;3.22;2.10;;;28.70;40.90;;;;;;5094744;28;20489;-72
2022/07/28 10:46:01;;;;;;;7.20;2.25;;;28.70;40.80;;;;;;5094842;28;20028;-71
2022/07/28 10:48:26;;;;;;;3.22;1.88;;;28.80;40.60;;;;;;5093513;28;20028;-72
2022/07/28 10:50:54;;;;;;;3.15;2.15;;;28.90;40.60;;;;;;5094696;28;20039;-71
2022/07/28 10:53:51;;;;;;;3.80;2.20;;;28.90;40.00;;;;;;5094941;28;20024;-70
2022/07/28 10:56:26;;;;;;;2.72;2.30;;;28.90;40.70;;;;;;5077127;28;20528;-72
2022/07/28 10:59:27;;;;;;;8.18;2.95;;;29.00;39.10;;;;;;5094652;28;20389;-71
2022/07/28 11:01:54;;;;;;;3.83;1.75;;;29.00;39.70;;;;;;5082639;28;20074;-71
2022/07/28 11:04:47;;;;;;;3.03;1.83;;;29.00;38.70;;;;;;5094700;28;20016;-71
2022/07/28 11:07:17;;;;;;;2.90;2.05;;;29.10;39.50;;;;;;5094427;28;20020;-72
2022/07/28 11:09:46;;;;;;;2.83;1.90;;;29.20;39.40;;;;;;5094384;28;20047;-72
2022/07/28 11:12:14;;;;;;;4.53;2.00;;;29.20;39.00;;;;;;5092799;28;20028;-71
2022/07/28 11:14:41;;;;;;;2.85;2.10;;;29.20;38.60;;;;;;5092989;28;20110;-72
2022/07/28 11:17:06;;;;;;;8.57;2.00;;;29.30;38.70;;;;;;5092817;28;20023;-71
2022/07/28 11:19:44;;;;;;;2.83;2.10;;;29.30;39.00;;;;;;5094173;28;20031;-72
2022/07/28 11:24:57;;;;;;;5.00;2.30;;;29.40;37.90;;;;;;5094369;28;20024;-71
2022/07/28 11:27:45;;;;;;;4.15;2.10;;;29.40;38.60;;;;;;5094052;28;20099;-70
2022/07/28 11:30:27;;;;;;;3.13;2.20;;;29.50;38.70;;;;;;5092675;28;20028;-71
2022/07/28 11:32:53;;;;;;;7.15;2.80;;;29.50;38.40;;;;;;5093597;28;20074;-70
2022/07/28 11:35:20;;;;;;;4.70;2.10;;;29.60;37.70;;;;;;5093817;28;20036;-71
2022/07/28 11:38:01;;;;;;;4.53;1.73;;;29.60;38.20;;;;;;5093790;28;20555;-73
2022/07/28 11:40:32;;;;;;;9.98;2.38;;;29.70;38.40;;;;;;5091645;28;20731;-71
2022/07/28 11:43:20;;;;;;;2.25;2.05;;;29.70;38.30;;;;;;5092413;28;20076;-71
2022/07/28 11:45:51;;;;;;;3.25;2.20;;;29.80;38.00;;;;;;5092414;28;20564;-70
2022/07/28 11:48:21;;;;;;;2.65;1.83;;;29.80;37.80;;;;;;5093554;28;20032;-71
2022/07/28 11:51:02;;;;;;;6.55;2.10;;;29.90;37.80;;;;;;5093605;28;20077;-72
2022/07/28 11:53:41;;;;;;;4.18;2.15;;;29.90;37.70;;;;;;5093723;28;20039;-69
2022/07/28 11:56:09;;;;;;;3.42;2.10;;;30.00;37.50;;;;;;5093389;28;20031;-70
2022/07/28 11:58:36;;;;;;;2.13;1.80;;;30.00;37.60;;;;;;5092141;28;20032;-70
2022/07/28 12:01:19;;;;;;;3.50;2.03;;;30.10;37.00;;;;;;5092107;28;20092;-72
2022/07/28 12:03:47;;;;;;;3.23;1.93;;;30.10;37.20;;;;;;5093325;28;20177;-72
2022/07/28 12:06:14;;;;;;;1.98;1.70;;;30.10;37.20;;;;;;5093332;28;20024;-69
2022/07/28 12:08:57;;;;;;;3.00;1.77;;;30.20;37.50;;;;;;5093381;28;20020;-70
2022/07/28 12:11:24;;;;;;;2.60;2.37;;;30.20;37.30;;;;;;5093257;28;20020;-70
2022/07/28 12:14:05;;;;;;;3.33;2.38;;;30.30;37.00;;;;;;5093177;28;20262;-71
2022/07/28 12:16:33;;;;;;;3.15;2.30;;;30.30;37.20;;;;;;5093153;28;20028;-70
2022/07/28 12:19:00;;;;;;;2.40;2.08;;;30.40;37.40;;;;;;5093060;28;20020;-73
2022/07/28 12:21:35;;;;;;;2.90;2.05;;;30.50;37.20;;;;;;5092882;28;20056;-70
2022/07/28 12:24:02;;;;;;;3.10;2.50;;;30.50;37.10;;;;;;5104986;28;20031;-71
2022/07/28 12:26:35;;;;;;;5.45;2.35;;;30.60;36.50;;;;;;5113216;28;20023;-70
2022/07/28 12:29:01;;;;;;;2.35;2.00;;;30.60;36.80;;;;;;5113484;28;20090;-71
2022/07/28 12:31:36;;;;;;;3.22;2.20;;;30.70;37.10;;;;;;5113478;28;20027;-71
2022/07/28 12:34:08;;;;;;;5.30;2.25;;;30.70;36.90;;;;;;5113441;28;20520;-73
2022/07/28 12:36:36;;;;;;;3.42;1.92;;;30.80;36.80;;;;;;5113378;28;20032;-71
2022/07/28 12:39:04;;;;;;;3.72;2.00;;;30.80;36.70;;;;;;5110006;28;20020;-73
2022/07/28 12:41:34;;;;;;;5.40;2.00;;;30.90;35.80;;;;;;5092942;28;20016;-73
2022/07/28 12:44:02;;;;;;;3.60;2.20;;;30.90;35.80;;;;;;5091656;28;20020;-73
2022/07/28 12:46:29;;;;;;;2.08;1.80;;;31.00;36.10;;;;;;5092796;28;20032;-72
2022/07/28 12:48:57;;;;;;;2.20;2.00;;;31.00;35.60;;;;;;5092784;28;20047;-71
2022/07/28 12:51:40;;;;;;;3.45;2.05;;;31.10;36.00;;;;;;5094005;28;20020;-73
2022/07/28 12:54:10;;;;;;;2.10;1.80;;;31.10;35.60;;;;;;5097262;28;20027;-72
2022/07/28 12:56:50;;;;;;;3.58;2.00;;;31.20;35.30;;;;;;5095553;28;20024;-71